sensor_id;sensor_type;location;lat;lon;timestamp;pressure;altitude;pressure_sealevel;temperature;humidity
36598;BME280;22607;49.550;11.940;2023-09-08T00:02:27;97271.84;;;16.69;100.00
36598;BME280;22607;49.550;11.940;2023-09-08T00:04:55;97271.22;;;16.67;100.00
36598;BME280;22607;49.550;11.940;2023-09-08T00:07:22;97267.78;;;16.73;100.00
36598;BME280;22607;49.550;11.940;2023-09-08T00:09:51;97266.53;;;16.62;100.00
36598;BME280;22607;49.550;11.940;2023-09-08T00:12:18;97262.00;;;16.49;100.00
36598;BME280;22607;49.550;11.940;2023-09-08T00:14:44;97264.88;;;16.54;100.00
36598;BME280;22607;49.550;11.940;2023-09-08T00:17:11;97257.91;;;16.40;100.00
36598;BME280;22607;49.550;11.940;2023-09-08T00:19:38;97254.47;;;16.46;100.00
36598;BME280;22607;49.550;11.940;2023-09-08T00:22:05;97256.91;;;16.54;100.00
36598;BME280;22607;49.550;11.940;2023-09-08T00:24:33;97261.41;;;16.47;100.00
36598;BME280;22607;49.550;11.940;2023-09-08T00:27:00;97256.63;;;16.29;100.00
36598;BME280;22607;49.550;11.940;2023-09-08T00:29:27;97257.28;;;16.31;100.00
36598;BME280;22607;49.550;11.940;2023-09-08T00:31:53;97258.63;;;16.13;100.00
36598;BME280;22607;49.550;11.940;2023-09-08T00:34:20;97253.97;;;16.16;100.00
36598;BME280;22607;49.550;11.940;2023-09-08T00:36:46;97255.63;;;16.23;100.00
36598;BME280;22607;49.550;11.940;2023-09-08T00:39:13;97249.31;;;16.31;100.00
36598;BME280;22607;49.550;11.940;2023-09-08T00:41:39;97257.66;;;16.28;100.00
36598;BME280;22607;49.550;11.940;2023-09-08T00:44:06;97255.19;;;16.20;100.00
36598;BME280;22607;49.550;11.940;2023-09-08T00:46:35;97257.63;;;16.21;100.00
36598;BME280;22607;49.550;11.940;2023-09-08T00:49:02;97256.00;;;16.20;100.00
36598;BME280;22607;49.550;11.940;2023-09-08T00:51:29;97251.66;;;16.06;100.00
36598;BME280;22607;49.550;11.940;2023-09-08T00:53:55;97257.53;;;16.01;100.00
36598;BME280;22607;49.550;11.940;2023-09-08T00:56:23;97261.63;;;16.04;100.00
36598;BME280;22607;49.550;11.940;2023-09-08T00:58:50;97258.78;;;16.05;100.00
36598;BME280;22607;49.550;11.940;2023-09-08T01:01:17;97259.19;;;16.02;100.00
36598;BME280;22607;49.550;11.940;2023-09-08T01:03:44;97257.84;;;15.84;100.00
36598;BME280;22607;49.550;11.940;2023-09-08T01:06:11;97260.78;;;15.96;100.00
36598;BME280;22607;49.550;11.940;2023-09-08T01:08:38;97261.63;;;15.97;100.00
36598;BME280;22607;49.550;11.940;2023-09-08T01:11:06;97264.56;;;15.80;100.00
36598;BME280;22607;49.550;11.940;2023-09-08T01:13:33;97267.16;;;15.73;100.00
36598;BME280;22607;49.550;11.940;2023-09-08T01:16:01;97270.81;;;15.72;100.00
36598;BME280;22607;49.550;11.940;2023-09-08T01:18:28;97254.84;;;15.59;100.00
36598;BME280;22607;49.550;11.940;2023-09-08T01:26:04;97264.28;;;15.40;100.00
36598;BME280;22607;49.550;11.940;2023-09-08T01:28:34;97263.66;;;15.38;100.00
36598;BME280;22607;49.550;11.940;2023-09-08T01:31:01;97253.84;;;15.31;100.00
36598;BME280;22607;49.550;11.940;2023-09-08T01:33:28;97255.13;;;15.42;100.00
36598;BME280;22607;49.550;11.940;2023-09-08T01:35:55;97259.72;;;15.27;100.00
36598;BME280;22607;49.550;11.940;2023-09-08T01:38:22;97254.47;;;15.33;100.00
36598;BME280;22607;49.550;11.940;2023-09-08T01:40:49;97257.91;;;15.27;100.00
36598;BME280;22607;49.550;11.940;2023-09-08T01:43:16;97247.94;;;15.29;100.00
36598;BME280;22607;49.550;11.940;2023-09-08T01:45:48;97251.41;;;15.30;100.00
36598;BME280;22607;49.550;11.940;2023-09-08T01:48:14;97263.50;;;14.74;100.00
36598;BME280;22607;49.550;11.940;2023-09-08T01:50:41;97257.72;;;15.07;100.00
36598;BME280;22607;49.550;11.940;2023-09-08T01:53:07;97249.22;;;15.12;100.00
36598;BME280;22607;49.550;11.940;2023-09-08T01:55:34;97252.09;;;15.17;100.00
36598;BME280;22607;49.550;11.940;2023-09-08T01:58:00;97255.94;;;15.14;100.00
36598;BME280;22607;49.550;11.940;2023-09-08T02:00:27;97257.19;;;15.18;100.00
36598;BME280;22607;49.550;11.940;2023-09-08T02:02:54;97254.84;;;15.02;100.00
36598;BME280;22607;49.550;11.940;2023-09-08T02:05:20;97250.81;;;15.06;100.00
36598;BME280;22607;49.550;11.940;2023-09-08T02:07:47;97258.34;;;15.09;100.00
36598;BME280;22607;49.550;11.940;2023-09-08T02:10:14;97245.66;;;14.98;100.00
36598;BME280;22607;49.550;11.940;2023-09-08T02:12:40;97246.78;;;14.88;100.00
36598;BME280;22607;49.550;11.940;2023-09-08T02:15:07;97248.59;;;14.88;100.00
36598;BME280;22607;49.550;11.940;2023-09-08T02:17:35;97248.66;;;14.94;100.00
36598;BME280;22607;49.550;11.940;2023-09-08T02:20:03;97239.88;;;14.87;100.00
36598;BME280;22607;49.550;11.940;2023-09-08T02:22:29;97248.59;;;14.88;100.00
36598;BME280;22607;49.550;11.940;2023-09-08T02:25:02;97248.34;;;14.82;100.00
36598;BME280;22607;49.550;11.940;2023-09-08T02:27:29;97238.41;;;14.85;100.00
36598;BME280;22607;49.550;11.940;2023-09-08T02:29:56;97243.56;;;14.71;100.00
36598;BME280;22607;49.550;11.940;2023-09-08T02:32:23;97248.72;;;14.57;100.00
36598;BME280;22607;49.550;11.940;2023-09-08T02:34:49;97241.47;;;14.66;100.00
36598;BME280;22607;49.550;11.940;2023-09-08T02:37:16;97240.97;;;14.56;100.00
36598;BME280;22607;49.550;11.940;2023-09-08T02:39:45;97234.91;;;14.62;100.00
36598;BME280;22607;49.550;11.940;2023-09-08T02:42:12;97231.50;;;14.47;100.00
36598;BME280;22607;49.550;11.940;2023-09-08T02:44:38;97241.47;;;14.66;100.00
36598;BME280;22607;49.550;11.940;2023-09-08T02:47:05;97237.19;;;14.65;100.00
36598;BME280;22607;49.550;11.940;2023-09-08T02:49:32;97231.13;;;14.72;100.00
36598;BME280;22607;49.550;11.940;2023-09-08T02:52:00;97226.38;;;14.60;100.00
36598;BME280;22607;49.550;11.940;2023-09-08T02:54:26;97237.88;;;14.74;100.00
36598;BME280;22607;49.550;11.940;2023-09-08T02:56:53;97238.94;;;14.58;100.00
36598;BME280;22607;49.550;11.940;2023-09-08T02:59:19;97242.97;;;14.54;100.00
36598;BME280;22607;49.550;11.940;2023-09-08T03:01:46;97249.38;;;14.44;100.00
36598;BME280;22607;49.550;11.940;2023-09-08T03:04:13;97241.31;;;14.53;100.00
36598;BME280;22607;49.550;11.940;2023-09-08T03:06:40;97239.63;;;14.45;100.00
36598;BME280;22607;49.550;11.940;2023-09-08T03:09:06;97240.38;;;14.39;100.00
36598;BME280;22607;49.550;11.940;2023-09-08T03:11:33;97241.44;;;14.44;100.00
36598;BME280;22607;49.550;11.940;2023-09-08T03:14:01;97227.03;;;14.25;100.00
36598;BME280;22607;49.550;11.940;2023-09-08T03:16:28;97240.78;;;14.21;100.00
36598;BME280;22607;49.550;11.940;2023-09-08T03:19:00;97233.34;;;14.09;100.00
36598;BME280;22607;49.550;11.940;2023-09-08T03:21:26;97240.34;;;14.02;100.00
36598;BME280;22607;49.550;11.940;2023-09-08T03:23:53;97242.63;;;14.05;100.00
36598;BME280;22607;49.550;11.940;2023-09-08T03:26:19;97237.44;;;13.97;100.00
36598;BME280;22607;49.550;11.940;2023-09-08T03:28:46;97227.72;;;13.97;100.00
36598;BME280;22607;49.550;11.940;2023-09-08T03:31:12;97238.06;;;14.14;100.00
36598;BME280;22607;49.550;11.940;2023-09-08T03:33:40;97223.06;;;13.99;100.00
36598;BME280;22607;49.550;11.940;2023-09-08T03:36:09;97234.28;;;13.86;100.00
36598;BME280;22607;49.550;11.940;2023-09-08T03:38:35;97235.28;;;13.85;100.00
36598;BME280;22607;49.550;11.940;2023-09-08T03:41:06;97231.97;;;13.98;100.00
36598;BME280;22607;49.550;11.940;2023-09-08T03:43:33;97225.78;;;14.06;100.00
36598;BME280;22607;49.550;11.940;2023-09-08T03:46:00;97233.97;;;14.11;100.00
36598;BME280;22607;49.550;11.940;2023-09-08T03:48:27;97237.34;;;13.90;100.00
36598;BME280;22607;49.550;11.940;2023-09-08T03:50:54;97230.00;;;13.85;100.00
36598;BME280;22607;49.550;11.940;2023-09-08T03:53:20;97238.63;;;13.79;100.00
36598;BME280;22607;49.550;11.940;2023-09-08T03:55:47;97241.75;;;13.68;100.00
36598;BME280;22607;49.550;11.940;2023-09-08T03:58:13;97244.19;;;13.84;100.00
36598;BME280;22607;49.550;11.940;2023-09-08T04:00:40;97248.56;;;13.77;100.00
36598;BME280;22607;49.550;11.940;2023-09-08T04:03:07;97237.66;;;13.80;100.00
36598;BME280;22607;49.550;11.940;2023-09-08T04:05:34;97246.94;;;13.76;100.00
36598;BME280;22607;49.550;11.940;2023-09-08T04:08:01;97239.63;;;13.78;100.00
36598;BME280;22607;49.550;11.940;2023-09-08T04:10:28;97242.19;;;13.86;100.00
36598;BME280;22607;49.550;11.940;2023-09-08T04:12:55;97248.56;;;13.92;100.00
36598;BME280;22607;49.550;11.940;2023-09-08T04:15:22;97239.19;;;13.74;100.00
36598;BME280;22607;49.550;11.940;2023-09-08T04:17:49;97251.13;;;13.85;100.00
36598;BME280;22607;49.550;11.940;2023-09-08T04:20:16;97246.38;;;13.81;100.00
36598;BME280;22607;49.550;11.940;2023-09-08T04:22:42;97233.09;;;13.74;100.00
36598;BME280;22607;49.550;11.940;2023-09-08T04:25:10;97253.41;;;13.73;100.00
36598;BME280;22607;49.550;11.940;2023-09-08T04:27:37;97254.19;;;13.74;100.00
36598;BME280;22607;49.550;11.940;2023-09-08T04:30:11;97252.38;;;13.59;100.00
36598;BME280;22607;49.550;11.940;2023-09-08T04:32:38;97256.38;;;13.55;100.00
36598;BME280;22607;49.550;11.940;2023-09-08T04:35:05;97261.75;;;13.62;100.00
36598;BME280;22607;49.550;11.940;2023-09-08T04:37:34;97252.94;;;13.55;100.00
36598;BME280;22607;49.550;11.940;2023-09-08T04:40:00;97269.50;;;13.63;100.00
36598;BME280;22607;49.550;11.940;2023-09-08T04:42:27;97259.28;;;13.60;100.00
36598;BME280;22607;49.550;11.940;2023-09-08T04:44:54;97256.19;;;13.57;100.00
36598;BME280;22607;49.550;11.940;2023-09-08T04:47:20;97259.66;;;13.57;100.00
36598;BME280;22607;49.550;11.940;2023-09-08T04:49:47;97262.44;;;13.41;100.00
36598;BME280;22607;49.550;11.940;2023-09-08T04:52:13;97269.00;;;13.45;100.00
36598;BME280;22607;49.550;11.940;2023-09-08T04:54:41;97263.34;;;13.33;100.00
36598;BME280;22607;49.550;11.940;2023-09-08T04:57:07;97272.25;;;13.32;100.00
36598;BME280;22607;49.550;11.940;2023-09-08T04:59:48;97277.63;;;13.38;100.00
36598;BME280;22607;49.550;11.940;2023-09-08T05:02:15;97258.41;;;13.30;100.00
36598;BME280;22607;49.550;11.940;2023-09-08T05:04:42;97273.16;;;13.39;100.00
36598;BME280;22607;49.550;11.940;2023-09-08T05:07:08;97266.66;;;13.50;100.00
36598;BME280;22607;49.550;11.940;2023-09-08T05:09:36;97277.88;;;13.52;100.00
36598;BME280;22607;49.550;11.940;2023-09-08T05:12:03;97268.50;;;13.49;100.00
36598;BME280;22607;49.550;11.940;2023-09-08T05:14:30;97269.13;;;13.67;100.00
36598;BME280;22607;49.550;11.940;2023-09-08T05:16:56;97276.06;;;13.68;100.00
36598;BME280;22607;49.550;11.940;2023-09-08T05:19:23;97257.56;;;13.52;100.00
36598;BME280;22607;49.550;11.940;2023-09-08T05:21:51;97275.94;;;13.61;100.00
36598;BME280;22607;49.550;11.940;2023-09-08T05:24:18;97267.09;;;13.54;100.00
36598;BME280;22607;49.550;11.940;2023-09-08T05:26:45;97268.56;;;13.56;100.00
36598;BME280;22607;49.550;11.940;2023-09-08T05:29:11;97274.41;;;13.67;100.00
36598;BME280;22607;49.550;11.940;2023-09-08T05:31:38;97285.06;;;13.88;100.00
36598;BME280;22607;49.550;11.940;2023-09-08T05:34:05;97278.75;;;14.20;100.00
36598;BME280;22607;49.550;11.940;2023-09-08T05:36:32;97269.69;;;15.25;100.00
36598;BME280;22607;49.550;11.940;2023-09-08T05:39:00;97265.50;;;16.57;100.00
36598;BME280;22607;49.550;11.940;2023-09-08T05:41:28;97266.22;;;17.40;95.14
36598;BME280;22607;49.550;11.940;2023-09-08T05:43:55;97269.13;;;18.18;86.53
36598;BME280;22607;49.550;11.940;2023-09-08T05:46:21;97261.66;;;18.47;81.92
36598;BME280;22607;49.550;11.940;2023-09-08T05:48:48;97265.09;;;18.86;80.07
36598;BME280;22607;49.550;11.940;2023-09-08T05:51:15;97276.22;;;19.34;78.35
36598;BME280;22607;49.550;11.940;2023-09-08T05:53:42;97266.09;;;19.68;75.65
36598;BME280;22607;49.550;11.940;2023-09-08T05:56:09;97263.78;;;19.98;75.17
36598;BME280;22607;49.550;11.940;2023-09-08T05:58:36;97271.44;;;20.43;71.83
36598;BME280;22607;49.550;11.940;2023-09-08T06:01:03;97246.47;;;20.68;71.42
36598;BME280;22607;49.550;11.940;2023-09-08T06:03:30;97270.03;;;21.14;68.83
36598;BME280;22607;49.550;11.940;2023-09-08T06:05:57;97263.44;;;21.17;67.90
36598;BME280;22607;49.550;11.940;2023-09-08T06:08:23;97263.09;;;21.49;67.32
36598;BME280;22607;49.550;11.940;2023-09-08T06:10:51;97271.81;;;21.80;66.70
36598;BME280;22607;49.550;11.940;2023-09-08T06:13:17;97266.31;;;21.99;65.43
36598;BME280;22607;49.550;11.940;2023-09-08T06:15:44;97271.16;;;22.26;64.67
36598;BME280;22607;49.550;11.940;2023-09-08T06:18:11;97270.97;;;22.57;64.15
36598;BME280;22607;49.550;11.940;2023-09-08T06:20:44;97272.56;;;22.58;62.48
36598;BME280;22607;49.550;11.940;2023-09-08T06:23:11;97272.88;;;22.73;62.87
36598;BME280;22607;49.550;11.940;2023-09-08T06:25:38;97268.31;;;22.74;62.50
36598;BME280;22607;49.550;11.940;2023-09-08T06:28:05;97273.56;;;22.98;63.09
36598;BME280;22607;49.550;11.940;2023-09-08T06:30:33;97277.00;;;23.44;61.96
36598;BME280;22607;49.550;11.940;2023-09-08T06:32:59;97271.91;;;23.82;61.68
36598;BME280;22607;49.550;11.940;2023-09-08T06:35:26;97257.34;;;23.95;59.27
36598;BME280;22607;49.550;11.940;2023-09-08T06:37:54;97255.31;;;23.85;60.13
36598;BME280;22607;49.550;11.940;2023-09-08T06:40:21;97256.78;;;24.16;57.36
36598;BME280;22607;49.550;11.940;2023-09-08T06:42:47;97246.94;;;24.21;57.23
36598;BME280;22607;49.550;11.940;2023-09-08T06:45:14;97252.44;;;24.59;56.24
36598;BME280;22607;49.550;11.940;2023-09-08T06:47:41;97256.78;;;24.65;56.52
36598;BME280;22607;49.550;11.940;2023-09-08T06:50:10;97268.16;;;24.50;54.62
36598;BME280;22607;49.550;11.940;2023-09-08T06:52:36;97253.19;;;24.27;53.97
36598;BME280;22607;49.550;11.940;2023-09-08T06:55:05;97262.75;;;24.45;54.12
36598;BME280;22607;49.550;11.940;2023-09-08T06:57:31;97258.09;;;24.63;53.78
36598;BME280;22607;49.550;11.940;2023-09-08T06:59:59;97256.41;;;25.12;52.42
36598;BME280;22607;49.550;11.940;2023-09-08T07:02:26;97258.97;;;25.29;53.20
36598;BME280;22607;49.550;11.940;2023-09-08T07:04:53;97262.72;;;25.28;52.28
36598;BME280;22607;49.550;11.940;2023-09-08T07:07:20;97263.38;;;25.46;52.96
36598;BME280;22607;49.550;11.940;2023-09-08T07:09:47;97250.66;;;25.74;51.28
36598;BME280;22607;49.550;11.940;2023-09-08T07:12:14;97255.34;;;25.51;51.16
36598;BME280;22607;49.550;11.940;2023-09-08T07:14:40;97263.34;;;25.40;50.41
36598;BME280;22607;49.550;11.940;2023-09-08T07:17:07;97264.56;;;25.60;51.19
36598;BME280;22607;49.550;11.940;2023-09-08T07:19:34;97260.28;;;25.59;51.37
36598;BME280;22607;49.550;11.940;2023-09-08T07:22:00;97260.31;;;25.64;50.25
36598;BME280;22607;49.550;11.940;2023-09-08T07:24:27;97254.34;;;25.57;49.79
36598;BME280;22607;49.550;11.940;2023-09-08T07:26:54;97245.84;;;25.71;49.45
36598;BME280;22607;49.550;11.940;2023-09-08T07:29:21;97248.28;;;25.39;49.47
36598;BME280;22607;49.550;11.940;2023-09-08T07:31:47;97258.28;;;25.49;49.73
36598;BME280;22607;49.550;11.940;2023-09-08T07:34:14;97256.50;;;25.60;49.91
36598;BME280;22607;49.550;11.940;2023-09-08T07:36:41;97259.03;;;25.39;51.14
36598;BME280;22607;49.550;11.940;2023-09-08T07:39:07;97258.13;;;24.90;50.84
36598;BME280;22607;49.550;11.940;2023-09-08T07:41:34;97254.53;;;25.12;50.08
36598;BME280;22607;49.550;11.940;2023-09-08T07:44:01;97251.94;;;25.61;50.32
36598;BME280;22607;49.550;11.940;2023-09-08T07:46:28;97253.47;;;25.94;49.17
36598;BME280;22607;49.550;11.940;2023-09-08T07:48:54;97253.53;;;26.10;50.54
36598;BME280;22607;49.550;11.940;2023-09-08T07:51:21;97258.66;;;26.17;49.13
36598;BME280;22607;49.550;11.940;2023-09-08T07:53:48;97254.13;;;26.23;48.45
36598;BME280;22607;49.550;11.940;2023-09-08T07:56:14;97253.09;;;26.39;48.69
36598;BME280;22607;49.550;11.940;2023-09-08T07:58:41;97265.25;;;26.52;47.19
36598;BME280;22607;49.550;11.940;2023-09-08T08:01:08;97268.72;;;26.37;47.86
36598;BME280;22607;49.550;11.940;2023-09-08T08:03:34;97257.53;;;26.02;48.36
36598;BME280;22607;49.550;11.940;2023-09-08T08:06:09;97250.94;;;26.31;47.79
36598;BME280;22607;49.550;11.940;2023-09-08T08:08:35;97254.09;;;26.17;47.57
36598;BME280;22607;49.550;11.940;2023-09-08T08:11:12;97258.84;;;26.74;48.66
36598;BME280;22607;49.550;11.940;2023-09-08T08:13:39;97256.72;;;27.12;47.46
36598;BME280;22607;49.550;11.940;2023-09-08T08:16:06;97250.81;;;27.21;45.91
36598;BME280;22607;49.550;11.940;2023-09-08T08:18:34;97262.66;;;27.35;46.30
36598;BME280;22607;49.550;11.940;2023-09-08T08:21:02;97260.47;;;27.48;46.09
36598;BME280;22607;49.550;11.940;2023-09-08T08:23:30;97255.88;;;27.43;45.63
36598;BME280;22607;49.550;11.940;2023-09-08T08:25:58;97256.75;;;27.28;45.84
36598;BME280;22607;49.550;11.940;2023-09-08T08:28:25;97259.72;;;27.16;45.35
36598;BME280;22607;49.550;11.940;2023-09-08T08:30:52;97258.09;;;26.94;46.14
36598;BME280;22607;49.550;11.940;2023-09-08T08:33:19;97258.56;;;26.65;46.72
36598;BME280;22607;49.550;11.940;2023-09-08T08:35:51;97251.09;;;26.98;45.71
36598;BME280;22607;49.550;11.940;2023-09-08T08:38:18;97251.91;;;27.04;45.90
36598;BME280;22607;49.550;11.940;2023-09-08T08:40:45;97254.03;;;27.38;45.93
36598;BME280;22607;49.550;11.940;2023-09-08T08:43:12;97251.59;;;27.37;45.26
36598;BME280;22607;49.550;11.940;2023-09-08T08:45:41;97248.09;;;27.42;44.85
36598;BME280;22607;49.550;11.940;2023-09-08T08:48:10;97236.78;;;27.29;45.39
36598;BME280;22607;49.550;11.940;2023-09-08T08:50:42;97234.34;;;27.33;44.30
36598;BME280;22607;49.550;11.940;2023-09-08T08:53:10;97251.31;;;27.49;45.19
36598;BME280;22607;49.550;11.940;2023-09-08T08:55:36;97246.78;;;27.03;45.06
36598;BME280;22607;49.550;11.940;2023-09-08T08:58:04;97248.38;;;27.40;45.92
36598;BME280;22607;49.550;11.940;2023-09-08T09:00:35;97252.66;;;27.67;45.05
36598;BME280;22607;49.550;11.940;2023-09-08T09:03:05;97248.59;;;27.75;43.92
36598;BME280;22607;49.550;11.940;2023-09-08T09:05:41;97248.25;;;27.97;44.09
36598;BME280;22607;49.550;11.940;2023-09-08T09:08:16;97254.16;;;28.04;43.87
36598;BME280;22607;49.550;11.940;2023-09-08T09:10:43;97253.03;;;28.11;44.34
36598;BME280;22607;49.550;11.940;2023-09-08T09:13:09;97233.13;;;27.96;43.52
36598;BME280;22607;49.550;11.940;2023-09-08T09:15:36;97243.97;;;27.91;44.89
36598;BME280;22607;49.550;11.940;2023-09-08T09:18:07;97254.63;;;28.17;43.88
36598;BME280;22607;49.550;11.940;2023-09-08T09:20:34;97246.00;;;28.25;43.69
36598;BME280;22607;49.550;11.940;2023-09-08T09:23:01;97240.84;;;28.24;43.69
36598;BME280;22607;49.550;11.940;2023-09-08T09:25:30;97242.75;;;28.23;42.50
36598;BME280;22607;49.550;11.940;2023-09-08T09:28:00;97236.50;;;28.73;44.71
36598;BME280;22607;49.550;11.940;2023-09-08T09:30:46;97218.97;;;28.30;42.14
36598;BME280;22607;49.550;11.940;2023-09-08T09:33:13;97242.75;;;28.13;42.96
36598;BME280;22607;49.550;11.940;2023-09-08T09:35:44;97233.09;;;28.07;43.58
36598;BME280;22607;49.550;11.940;2023-09-08T09:38:12;97231.59;;;28.40;43.40
36598;BME280;22607;49.550;11.940;2023-09-08T09:40:39;97237.34;;;28.28;42.58
36598;BME280;22607;49.550;11.940;2023-09-08T09:43:07;97238.72;;;28.10;42.43
36598;BME280;22607;49.550;11.940;2023-09-08T09:45:35;97230.31;;;28.22;41.99
36598;BME280;22607;49.550;11.940;2023-09-08T09:48:05;97220.72;;;28.51;42.57
36598;BME280;22607;49.550;11.940;2023-09-08T09:50:37;97226.44;;;28.44;41.95
36598;BME280;22607;49.550;11.940;2023-09-08T09:53:11;97226.91;;;28.01;43.11
36598;BME280;22607;49.550;11.940;2023-09-08T09:55:39;97222.72;;;28.35;42.49
36598;BME280;22607;49.550;11.940;2023-09-08T09:58:07;97211.03;;;28.50;41.62
36598;BME280;22607;49.550;11.940;2023-09-08T10:00:35;97208.50;;;28.59;40.68
36598;BME280;22607;49.550;11.940;2023-09-08T10:03:03;97208.66;;;28.38;41.06
36598;BME280;22607;49.550;11.940;2023-09-08T10:05:30;97211.94;;;28.24;41.65
36598;BME280;22607;49.550;11.940;2023-09-08T10:07:57;97208.16;;;28.30;41.90
36598;BME280;22607;49.550;11.940;2023-09-08T10:10:26;97208.63;;;28.43;42.98
36598;BME280;22607;49.550;11.940;2023-09-08T10:12:54;97197.50;;;28.50;41.26
36598;BME280;22607;49.550;11.940;2023-09-08T10:15:23;97197.66;;;28.64;41.69
36598;BME280;22607;49.550;11.940;2023-09-08T10:17:54;97198.22;;;28.66;40.46
36598;BME280;22607;49.550;11.940;2023-09-08T10:20:25;97206.88;;;28.63;41.21
36598;BME280;22607;49.550;11.940;2023-09-08T10:22:56;97184.91;;;28.75;41.28
36598;BME280;22607;49.550;11.940;2023-09-08T10:25:24;97193.72;;;28.86;39.74
36598;BME280;22607;49.550;11.940;2023-09-08T10:27:53;97193.78;;;28.80;39.75
36598;BME280;22607;49.550;11.940;2023-09-08T10:30:21;97190.09;;;28.66;39.33
36598;BME280;22607;49.550;11.940;2023-09-08T10:32:50;97181.41;;;28.74;39.38
36598;BME280;22607;49.550;11.940;2023-09-08T10:35:17;97191.06;;;28.80;38.66
36598;BME280;22607;49.550;11.940;2023-09-08T10:37:45;97183.06;;;29.05;40.11
36598;BME280;22607;49.550;11.940;2023-09-08T10:40:23;97177.16;;;29.27;36.13
36598;BME280;22607;49.550;11.940;2023-09-08T10:43:11;97191.00;;;29.50;37.38
36598;BME280;22607;49.550;11.940;2023-09-08T10:45:39;97187.22;;;29.51;35.28
36598;BME280;22607;49.550;11.940;2023-09-08T10:48:08;97174.47;;;29.27;38.26
36598;BME280;22607;49.550;11.940;2023-09-08T10:50:41;97183.66;;;29.26;36.54
36598;BME280;22607;49.550;11.940;2023-09-08T10:53:16;97170.44;;;29.49;36.26
36598;BME280;22607;49.550;11.940;2023-09-08T10:55:47;97172.66;;;29.17;35.53
36598;BME280;22607;49.550;11.940;2023-09-08T10:58:31;97172.53;;;29.03;38.39
36598;BME280;22607;49.550;11.940;2023-09-08T11:01:03;97182.09;;;28.85;38.78
36598;BME280;22607;49.550;11.940;2023-09-08T11:03:46;97181.63;;;28.78;39.24
36598;BME280;22607;49.550;11.940;2023-09-08T11:06:24;97188.19;;;28.66;35.88
36598;BME280;22607;49.550;11.940;2023-09-08T11:09:06;97175.66;;;28.46;37.29
36598;BME280;22607;49.550;11.940;2023-09-08T11:11:33;97168.63;;;28.80;38.81
36598;BME280;22607;49.550;11.940;2023-09-08T11:14:00;97167.44;;;28.62;39.52
36598;BME280;22607;49.550;11.940;2023-09-08T11:16:28;97170.16;;;28.62;38.96
36598;BME280;22607;49.550;11.940;2023-09-08T11:18:58;97162.13;;;28.86;38.21
36598;BME280;22607;49.550;11.940;2023-09-08T11:21:24;97160.06;;;28.73;37.80
36598;BME280;22607;49.550;11.940;2023-09-08T11:23:51;97164.16;;;28.70;40.15
36598;BME280;22607;49.550;11.940;2023-09-08T11:26:18;97155.81;;;28.96;40.13
36598;BME280;22607;49.550;11.940;2023-09-08T11:28:45;97164.38;;;29.08;39.61
36598;BME280;22607;49.550;11.940;2023-09-08T11:31:16;97158.84;;;29.19;39.51
36598;BME280;22607;49.550;11.940;2023-09-08T11:33:42;97159.47;;;29.11;39.17
36598;BME280;22607;49.550;11.940;2023-09-08T11:36:13;97157.09;;;28.69;38.67
36598;BME280;22607;49.550;11.940;2023-09-08T11:38:46;97163.84;;;28.72;40.17
36598;BME280;22607;49.550;11.940;2023-09-08T11:41:13;97161.44;;;29.05;39.78
36598;BME280;22607;49.550;11.940;2023-09-08T11:43:40;97167.13;;;29.03;36.78
36598;BME280;22607;49.550;11.940;2023-09-08T11:46:07;97156.47;;;28.48;38.75
36598;BME280;22607;49.550;11.940;2023-09-08T11:48:34;97164.38;;;28.39;39.85
36598;BME280;22607;49.550;11.940;2023-09-08T11:51:06;97146.31;;;28.29;39.31
36598;BME280;22607;49.550;11.940;2023-09-08T11:53:34;97162.59;;;28.59;39.14
36598;BME280;22607;49.550;11.940;2023-09-08T11:56:01;97160.91;;;28.68;40.04
36598;BME280;22607;49.550;11.940;2023-09-08T11:58:28;97163.03;;;28.71;40.07
36598;BME280;22607;49.550;11.940;2023-09-08T12:00:55;97168.97;;;28.73;39.14
36598;BME280;22607;49.550;11.940;2023-09-08T12:03:22;97155.91;;;28.86;39.88
36598;BME280;22607;49.550;11.940;2023-09-08T12:05:52;97161.91;;;28.77;39.83
36598;BME280;22607;49.550;11.940;2023-09-08T12:08:19;97159.69;;;28.90;39.90
36598;BME280;22607;49.550;11.940;2023-09-08T12:10:46;97152.75;;;28.73;40.57
36598;BME280;22607;49.550;11.940;2023-09-08T12:13:12;97146.69;;;28.87;40.10
36598;BME280;22607;49.550;11.940;2023-09-08T12:15:42;97152.63;;;28.94;39.89
36598;BME280;22607;49.550;11.940;2023-09-08T12:18:11;97148.53;;;28.62;39.85
36598;BME280;22607;49.550;11.940;2023-09-08T12:20:39;97154.50;;;28.59;40.68
36598;BME280;22607;49.550;11.940;2023-09-08T12:23:18;97144.56;;;28.89;39.15
36598;BME280;22607;49.550;11.940;2023-09-08T12:25:48;97151.97;;;28.73;39.22
36598;BME280;22607;49.550;11.940;2023-09-08T12:28:17;97145.09;;;28.86;40.08
36598;BME280;22607;49.550;11.940;2023-09-08T12:30:44;97134.25;;;28.91;41.09
36598;BME280;22607;49.550;11.940;2023-09-08T12:33:12;97144.44;;;28.99;39.93
36598;BME280;22607;49.550;11.940;2023-09-08T12:35:44;97134.69;;;29.03;39.90
36598;BME280;22607;49.550;11.940;2023-09-08T12:38:13;97111.22;;;28.64;40.04
36598;BME280;22607;49.550;11.940;2023-09-08T12:40:40;97145.75;;;28.72;40.50
36598;BME280;22607;49.550;11.940;2023-09-08T12:43:06;97144.22;;;28.61;39.59
36598;BME280;22607;49.550;11.940;2023-09-08T12:45:52;97140.81;;;28.79;40.34
36598;BME280;22607;49.550;11.940;2023-09-08T12:48:19;97143.00;;;28.77;38.66
36598;BME280;22607;49.550;11.940;2023-09-08T12:50:46;97138.50;;;29.02;39.57
36598;BME280;22607;49.550;11.940;2023-09-08T12:53:12;97132.28;;;28.67;39.78
36598;BME280;22607;49.550;11.940;2023-09-08T12:55:39;97124.13;;;28.72;40.62